sensor_id;sensor_type;location;lat;lon;timestamp;P1;durP1;ratioP1;P2;durP2;ratioP2
36353;SDS011;22383;51.114;13.666;2022-11-04T00:03:56;1.58;;;1.48;;
36353;SDS011;22383;51.114;13.666;2022-11-04T00:06:23;1.50;;;1.40;;
36353;SDS011;22383;51.114;13.666;2022-11-04T00:08:52;2.58;;;1.88;;
36353;SDS011;22383;51.114;13.666;2022-11-04T00:11:22;8.35;;;2.08;;
36353;SDS011;22383;51.114;13.666;2022-11-04T00:14:09;1.45;;;1.35;;
36353;SDS011;22383;51.114;13.666;2022-11-04T00:16:36;2.67;;;2.15;;
36353;SDS011;22383;51.114;13.666;2022-11-04T00:19:23;3.10;;;1.58;;
36353;SDS011;22383;51.114;13.666;2022-11-04T00:21:50;29.63;;;3.35;;
36353;SDS011;22383;51.114;13.666;2022-11-04T00:24:37;6.60;;;2.60;;
36353;SDS011;22383;51.114;13.666;2022-11-04T00:27:23;1.08;;;0.93;;
36353;SDS011;22383;51.114;13.666;2022-11-04T00:30:09;3.50;;;1.73;;
36353;SDS011;22383;51.114;13.666;2022-11-04T00:32:37;2.15;;;1.38;;
36353;SDS011;22383;51.114;13.666;2022-11-04T00:35:23;2.45;;;0.88;;
36353;SDS011;22383;51.114;13.666;2022-11-04T00:37:50;2.92;;;1.10;;
36353;SDS011;22383;51.114;13.666;2022-11-04T00:40:18;2.35;;;2.08;;
36353;SDS011;22383;51.114;13.666;2022-11-04T00:42:45;17.63;;;1.88;;
36353;SDS011;22383;51.114;13.666;2022-11-04T00:45:13;1.33;;;1.05;;
36353;SDS011;22383;51.114;13.666;2022-11-04T00:47:41;3.85;;;2.78;;
36353;SDS011;22383;51.114;13.666;2022-11-04T00:50:08;7.35;;;3.17;;
36353;SDS011;22383;51.114;13.666;2022-11-04T00:52:36;1.58;;;1.05;;
36353;SDS011;22383;51.114;13.666;2022-11-04T00:55:04;3.80;;;2.28;;
36353;SDS011;22383;51.114;13.666;2022-11-04T00:59:59;1.85;;;1.73;;
36353;SDS011;22383;51.114;13.666;2022-11-04T01:02:26;7.78;;;1.55;;
36353;SDS011;22383;51.114;13.666;2022-11-04T01:04:57;3.58;;;2.08;;
36353;SDS011;22383;51.114;13.666;2022-11-04T01:07:24;2.42;;;1.80;;
36353;SDS011;22383;51.114;13.666;2022-11-04T01:09:51;0.82;;;0.82;;
36353;SDS011;22383;51.114;13.666;2022-11-04T01:12:19;13.88;;;1.63;;
36353;SDS011;22383;51.114;13.666;2022-11-04T01:14:47;9.95;;;2.72;;
36353;SDS011;22383;51.114;13.666;2022-11-04T01:17:15;1.35;;;1.25;;
36353;SDS011;22383;51.114;13.666;2022-11-04T01:19:43;3.88;;;2.22;;
36353;SDS011;22383;51.114;13.666;2022-11-04T01:22:10;1.88;;;1.63;;
36353;SDS011;22383;51.114;13.666;2022-11-04T01:24:38;2.03;;;1.23;;
36353;SDS011;22383;51.114;13.666;2022-11-04T01:27:05;8.05;;;2.97;;
36353;SDS011;22383;51.114;13.666;2022-11-04T01:29:33;2.10;;;1.60;;
36353;SDS011;22383;51.114;13.666;2022-11-04T01:32:00;2.05;;;1.83;;
36353;SDS011;22383;51.114;13.666;2022-11-04T01:34:29;9.10;;;2.25;;
36353;SDS011;22383;51.114;13.666;2022-11-04T01:36:56;2.78;;;2.05;;
36353;SDS011;22383;51.114;13.666;2022-11-04T01:39:24;1.65;;;1.52;;
36353;SDS011;22383;51.114;13.666;2022-11-04T01:41:52;5.90;;;3.08;;
36353;SDS011;22383;51.114;13.666;2022-11-04T01:47:16;7.75;;;2.63;;
36353;SDS011;22383;51.114;13.666;2022-11-04T01:49:51;3.13;;;2.17;;
36353;SDS011;22383;51.114;13.666;2022-11-04T01:52:40;7.78;;;2.65;;
36353;SDS011;22383;51.114;13.666;2022-11-04T01:55:21;1.95;;;1.75;;
36353;SDS011;22383;51.114;13.666;2022-11-04T01:57:51;5.00;;;2.45;;
36353;SDS011;22383;51.114;13.666;2022-11-04T02:00:22;13.75;;;3.15;;
36353;SDS011;22383;51.114;13.666;2022-11-04T02:05:34;11.50;;;2.45;;
36353;SDS011;22383;51.114;13.666;2022-11-04T02:08:03;2.53;;;2.33;;
36353;SDS011;22383;51.114;13.666;2022-11-04T02:10:32;5.55;;;2.65;;
36353;SDS011;22383;51.114;13.666;2022-11-04T02:13:00;1.58;;;1.48;;
36353;SDS011;22383;51.114;13.666;2022-11-04T02:30:24;6.45;;;2.45;;
36353;SDS011;22383;51.114;13.666;2022-11-04T02:32:50;4.20;;;3.78;;
36353;SDS011;22383;51.114;13.666;2022-11-04T02:38:45;3.25;;;2.67;;
36353;SDS011;22383;51.114;13.666;2022-11-04T02:41:52;7.78;;;3.13;;
36353;SDS011;22383;51.114;13.666;2022-11-04T02:44:36;4.22;;;2.70;;
36353;SDS011;22383;51.114;13.666;2022-11-04T02:47:14;10.38;;;2.03;;
36353;SDS011;22383;51.114;13.666;2022-11-04T02:49:49;3.50;;;3.08;;
36353;SDS011;22383;51.114;13.666;2022-11-04T02:52:19;7.57;;;2.38;;
36353;SDS011;22383;51.114;13.666;2022-11-04T02:54:58;6.82;;;2.90;;
36353;SDS011;22383;51.114;13.666;2022-11-04T02:57:30;8.43;;;3.63;;
36353;SDS011;22383;51.114;13.666;2022-11-04T03:00:03;3.58;;;2.85;;
36353;SDS011;22383;51.114;13.666;2022-11-04T03:02:54;6.28;;;3.00;;
36353;SDS011;22383;51.114;13.666;2022-11-04T03:05:31;4.63;;;2.58;;
36353;SDS011;22383;51.114;13.666;2022-11-04T03:08:02;6.28;;;2.92;;
36353;SDS011;22383;51.114;13.666;2022-11-04T03:10:36;4.35;;;2.90;;
36353;SDS011;22383;51.114;13.666;2022-11-04T03:13:10;7.47;;;2.67;;
36353;SDS011;22383;51.114;13.666;2022-11-04T03:15:40;11.23;;;2.30;;
36353;SDS011;22383;51.114;13.666;2022-11-04T03:21:01;10.50;;;2.95;;
36353;SDS011;22383;51.114;13.666;2022-11-04T03:23:30;2.30;;;2.13;;
36353;SDS011;22383;51.114;13.666;2022-11-04T03:34:44;2.25;;;2.05;;
36353;SDS011;22383;51.114;13.666;2022-11-04T03:37:11;2.22;;;1.92;;
36353;SDS011;22383;51.114;13.666;2022-11-04T03:39:39;3.13;;;2.15;;
36353;SDS011;22383;51.114;13.666;2022-11-04T03:42:07;6.50;;;2.25;;
36353;SDS011;22383;51.114;13.666;2022-11-04T03:44:47;3.67;;;2.42;;
36353;SDS011;22383;51.114;13.666;2022-11-04T03:49:54;2.25;;;1.75;;
36353;SDS011;22383;51.114;13.666;2022-11-04T03:52:39;2.08;;;1.48;;
36353;SDS011;22383;51.114;13.666;2022-11-04T03:55:07;6.18;;;3.72;;
36353;SDS011;22383;51.114;13.666;2022-11-04T04:00:24;7.50;;;2.55;;
36353;SDS011;22383;51.114;13.666;2022-11-04T04:03:17;7.32;;;2.92;;
36353;SDS011;22383;51.114;13.666;2022-11-04T04:05:55;9.82;;;3.35;;
36353;SDS011;22383;51.114;13.666;2022-11-04T04:16:59;2.92;;;1.60;;
36353;SDS011;22383;51.114;13.666;2022-11-04T04:19:31;5.22;;;2.88;;
36353;SDS011;22383;51.114;13.666;2022-11-04T04:22:02;7.32;;;3.40;;
36353;SDS011;22383;51.114;13.666;2022-11-04T04:28:17;2.35;;;2.15;;
36353;SDS011;22383;51.114;13.666;2022-11-04T04:30:46;2.95;;;2.42;;
36353;SDS011;22383;51.114;13.666;2022-11-04T04:33:27;2.88;;;2.42;;
36353;SDS011;22383;51.114;13.666;2022-11-04T04:35:55;4.32;;;2.65;;
36353;SDS011;22383;51.114;13.666;2022-11-04T04:38:25;3.53;;;2.58;;
36353;SDS011;22383;51.114;13.666;2022-11-04T04:41:26;10.45;;;2.58;;
36353;SDS011;22383;51.114;13.666;2022-11-04T04:44:27;6.35;;;2.55;;
36353;SDS011;22383;51.114;13.666;2022-11-04T04:47:15;2.90;;;2.67;;
36353;SDS011;22383;51.114;13.666;2022-11-04T04:49:52;4.57;;;1.98;;
36353;SDS011;22383;51.114;13.666;2022-11-04T04:52:21;5.88;;;2.47;;
36353;SDS011;22383;51.114;13.666;2022-11-04T04:54:50;3.63;;;2.38;;
36353;SDS011;22383;51.114;13.666;2022-11-04T04:57:18;8.13;;;3.05;;
36353;SDS011;22383;51.114;13.666;2022-11-04T04:59:45;4.45;;;2.65;;
36353;SDS011;22383;51.114;13.666;2022-11-04T05:02:13;4.93;;;2.53;;
36353;SDS011;22383;51.114;13.666;2022-11-04T05:07:08;6.45;;;4.15;;
36353;SDS011;22383;51.114;13.666;2022-11-04T05:09:36;3.88;;;2.33;;
36353;SDS011;22383;51.114;13.666;2022-11-04T05:12:03;6.47;;;3.88;;
36353;SDS011;22383;51.114;13.666;2022-11-04T05:14:31;8.45;;;2.65;;
36353;SDS011;22383;51.114;13.666;2022-11-04T05:16:58;6.93;;;3.92;;
36353;SDS011;22383;51.114;13.666;2022-11-04T05:19:25;10.75;;;2.30;;
36353;SDS011;22383;51.114;13.666;2022-11-04T05:21:53;21.10;;;3.60;;
36353;SDS011;22383;51.114;13.666;2022-11-04T05:24:20;2.38;;;2.17;;
36353;SDS011;22383;51.114;13.666;2022-11-04T05:26:48;10.13;;;3.42;;
36353;SDS011;22383;51.114;13.666;2022-11-04T05:29:15;13.00;;;3.75;;
36353;SDS011;22383;51.114;13.666;2022-11-04T05:31:42;5.35;;;3.03;;
36353;SDS011;22383;51.114;13.666;2022-11-04T05:34:10;7.60;;;4.53;;
36353;SDS011;22383;51.114;13.666;2022-11-04T05:36:39;20.90;;;3.90;;
36353;SDS011;22383;51.114;13.666;2022-11-04T05:39:09;6.88;;;4.53;;
36353;SDS011;22383;51.114;13.666;2022-11-04T05:41:41;6.72;;;3.13;;
36353;SDS011;22383;51.114;13.666;2022-11-04T05:44:09;2.92;;;2.38;;
36353;SDS011;22383;51.114;13.666;2022-11-04T05:46:44;5.53;;;3.90;;
36353;SDS011;22383;51.114;13.666;2022-11-04T05:49:11;3.80;;;3.03;;
36353;SDS011;22383;51.114;13.666;2022-11-04T05:51:39;9.60;;;5.32;;
36353;SDS011;22383;51.114;13.666;2022-11-04T05:54:06;11.98;;;5.10;;
36353;SDS011;22383;51.114;13.666;2022-11-04T05:56:35;6.68;;;4.13;;
36353;SDS011;22383;51.114;13.666;2022-11-04T05:59:04;5.60;;;4.07;;
36353;SDS011;22383;51.114;13.666;2022-11-04T06:01:32;3.72;;;2.45;;
36353;SDS011;22383;51.114;13.666;2022-11-04T06:04:08;6.65;;;3.08;;
36353;SDS011;22383;51.114;13.666;2022-11-04T06:06:40;2.88;;;2.67;;
36353;SDS011;22383;51.114;13.666;2022-11-04T06:09:08;5.88;;;3.33;;
36353;SDS011;22383;51.114;13.666;2022-11-04T06:11:36;5.78;;;3.90;;
36353;SDS011;22383;51.114;13.666;2022-11-04T06:14:04;6.57;;;4.75;;
36353;SDS011;22383;51.114;13.666;2022-11-04T06:16:37;2.90;;;2.00;;
36353;SDS011;22383;51.114;13.666;2022-11-04T06:19:04;11.82;;;3.83;;
36353;SDS011;22383;51.114;13.666;2022-11-04T06:21:37;2.17;;;1.98;;
36353;SDS011;22383;51.114;13.666;2022-11-04T06:24:06;6.13;;;3.60;;
36353;SDS011;22383;51.114;13.666;2022-11-04T06:26:34;4.43;;;3.28;;
36353;SDS011;22383;51.114;13.666;2022-11-04T06:29:01;3.15;;;2.28;;
36353;SDS011;22383;51.114;13.666;2022-11-04T06:31:29;2.58;;;2.38;;
36353;SDS011;22383;51.114;13.666;2022-11-04T06:33:56;4.18;;;2.63;;
36353;SDS011;22383;51.114;13.666;2022-11-04T06:36:24;4.22;;;3.08;;
36353;SDS011;22383;51.114;13.666;2022-11-04T06:38:51;2.33;;;2.13;;
36353;SDS011;22383;51.114;13.666;2022-11-04T06:41:19;2.28;;;1.85;;
36353;SDS011;22383;51.114;13.666;2022-11-04T06:43:46;2.20;;;1.98;;
36353;SDS011;22383;51.114;13.666;2022-11-04T06:48:50;2.80;;;2.47;;
36353;SDS011;22383;51.114;13.666;2022-11-04T06:51:18;2.15;;;1.95;;
36353;SDS011;22383;51.114;13.666;2022-11-04T06:53:45;1.88;;;1.73;;
36353;SDS011;22383;51.114;13.666;2022-11-04T06:56:13;6.63;;;1.67;;
36353;SDS011;22383;51.114;13.666;2022-11-04T07:01:08;2.72;;;2.53;;
36353;SDS011;22383;51.114;13.666;2022-11-04T07:03:43;4.20;;;2.42;;
36353;SDS011;22383;51.114;13.666;2022-11-04T07:08:38;10.30;;;2.55;;
36353;SDS011;22383;51.114;13.666;2022-11-04T07:11:07;2.03;;;0.95;;
36353;SDS011;22383;51.114;13.666;2022-11-04T07:13:34;3.20;;;1.23;;
36353;SDS011;22383;51.114;13.666;2022-11-04T07:16:05;2.92;;;1.67;;
36353;SDS011;22383;51.114;13.666;2022-11-04T07:18:34;1.30;;;1.05;;
36353;SDS011;22383;51.114;13.666;2022-11-04T07:21:02;3.38;;;1.58;;
36353;SDS011;22383;51.114;13.666;2022-11-04T07:23:36;3.17;;;2.53;;
36353;SDS011;22383;51.114;13.666;2022-11-04T07:26:05;2.35;;;1.92;;
36353;SDS011;22383;51.114;13.666;2022-11-04T07:28:33;1.77;;;1.50;;
36353;SDS011;22383;51.114;13.666;2022-11-04T07:31:02;4.68;;;1.38;;
36353;SDS011;22383;51.114;13.666;2022-11-04T07:33:31;6.00;;;2.15;;
36353;SDS011;22383;51.114;13.666;2022-11-04T07:36:04;1.17;;;0.95;;
36353;SDS011;22383;51.114;13.666;2022-11-04T07:38:36;4.57;;;1.35;;
36353;SDS011;22383;51.114;13.666;2022-11-04T07:41:04;1.90;;;1.65;;
36353;SDS011;22383;51.114;13.666;2022-11-04T07:43:32;1.50;;;1.20;;
36353;SDS011;22383;51.114;13.666;2022-11-04T07:48:38;3.63;;;2.13;;
36353;SDS011;22383;51.114;13.666;2022-11-04T07:51:07;6.97;;;0.60;;
36353;SDS011;22383;51.114;13.666;2022-11-04T07:53:35;3.42;;;1.70;;
36353;SDS011;22383;51.114;13.666;2022-11-04T07:56:07;3.55;;;2.05;;
36353;SDS011;22383;51.114;13.666;2022-11-04T07:58:37;7.43;;;1.33;;
36353;SDS011;22383;51.114;13.666;2022-11-04T08:03:34;1.35;;;1.25;;
36353;SDS011;22383;51.114;13.666;2022-11-04T08:06:03;2.55;;;1.48;;
36353;SDS011;22383;51.114;13.666;2022-11-04T08:08:35;0.55;;;0.55;;
36353;SDS011;22383;51.114;13.666;2022-11-04T08:11:04;13.20;;;3.45;;
36353;SDS011;22383;51.114;13.666;2022-11-04T08:13:42;9.25;;;2.72;;
36353;SDS011;22383;51.114;13.666;2022-11-04T08:16:10;2.08;;;1.02;;
36353;SDS011;22383;51.114;13.666;2022-11-04T08:18:41;2.85;;;1.55;;
36353;SDS011;22383;51.114;13.666;2022-11-04T08:21:09;2.03;;;1.17;;
36353;SDS011;22383;51.114;13.666;2022-11-04T08:23:37;0.93;;;0.93;;
36353;SDS011;22383;51.114;13.666;2022-11-04T08:26:12;1.05;;;0.95;;
36353;SDS011;22383;51.114;13.666;2022-11-04T08:28:42;1.98;;;0.55;;
36353;SDS011;22383;51.114;13.666;2022-11-04T08:31:29;0.95;;;0.77;;
36353;SDS011;22383;51.114;13.666;2022-11-04T08:33:57;0.38;;;0.38;;
36353;SDS011;22383;51.114;13.666;2022-11-04T08:36:25;2.28;;;1.85;;
36353;SDS011;22383;51.114;13.666;2022-11-04T08:38:59;3.35;;;2.55;;
36353;SDS011;22383;51.114;13.666;2022-11-04T08:41:33;2.15;;;1.48;;
36353;SDS011;22383;51.114;13.666;2022-11-04T08:44:02;6.60;;;1.98;;
36353;SDS011;22383;51.114;13.666;2022-11-04T08:46:32;1.55;;;1.05;;
36353;SDS011;22383;51.114;13.666;2022-11-04T08:49:01;1.17;;;1.08;;
36353;SDS011;22383;51.114;13.666;2022-11-04T08:51:40;6.30;;;0.52;;
36353;SDS011;22383;51.114;13.666;2022-11-04T08:54:13;0.77;;;0.75;;
36353;SDS011;22383;51.114;13.666;2022-11-04T08:56:42;2.15;;;0.98;;
36353;SDS011;22383;51.114;13.666;2022-11-04T08:59:11;3.28;;;1.25;;
36353;SDS011;22383;51.114;13.666;2022-11-04T09:01:39;3.85;;;1.08;;
36353;SDS011;22383;51.114;13.666;2022-11-04T09:04:07;3.70;;;1.42;;
36353;SDS011;22383;51.114;13.666;2022-11-04T09:06:39;1.10;;;0.68;;
36353;SDS011;22383;51.114;13.666;2022-11-04T09:09:09;4.40;;;1.95;;
36353;SDS011;22383;51.114;13.666;2022-11-04T09:11:40;0.75;;;0.75;;
36353;SDS011;22383;51.114;13.666;2022-11-04T09:14:09;0.60;;;0.60;;
36353;SDS011;22383;51.114;13.666;2022-11-04T09:16:37;1.80;;;1.02;;
36353;SDS011;22383;51.114;13.666;2022-11-04T09:19:06;0.95;;;0.95;;
36353;SDS011;22383;51.114;13.666;2022-11-04T09:21:37;1.95;;;0.98;;
36353;SDS011;22383;51.114;13.666;2022-11-04T09:24:05;2.35;;;1.20;;
36353;SDS011;22383;51.114;13.666;2022-11-04T09:26:33;0.40;;;0.40;;
36353;SDS011;22383;51.114;13.666;2022-11-04T09:31:30;1.50;;;0.47;;
36353;SDS011;22383;51.114;13.666;2022-11-04T09:33:57;1.08;;;0.93;;
36353;SDS011;22383;51.114;13.666;2022-11-04T09:36:25;0.60;;;0.60;;
36353;SDS011;22383;51.114;13.666;2022-11-04T09:38:55;2.75;;;0.57;;
36353;SDS011;22383;51.114;13.666;2022-11-04T09:41:36;1.27;;;0.98;;
36353;SDS011;22383;51.114;13.666;2022-11-04T09:46:49;1.27;;;1.17;;
36353;SDS011;22383;51.114;13.666;2022-11-04T09:49:20;0.88;;;0.88;;
36353;SDS011;22383;51.114;13.666;2022-11-04T09:51:50;0.63;;;0.52;;
36353;SDS011;22383;51.114;13.666;2022-11-04T09:54:22;1.38;;;1.27;;
36353;SDS011;22383;51.114;13.666;2022-11-04T09:57:01;4.75;;;1.95;;
36353;SDS011;22383;51.114;13.666;2022-11-04T09:59:31;1.35;;;0.95;;
36353;SDS011;22383;51.114;13.666;2022-11-04T10:19:48;1.90;;;1.33;;
36353;SDS011;22383;51.114;13.666;2022-11-04T10:27:31;2.13;;;1.13;;
36353;SDS011;22383;51.114;13.666;2022-11-04T10:30:03;0.82;;;0.82;;
36353;SDS011;22383;51.114;13.666;2022-11-04T10:38:12;0.80;;;0.80;;
36353;SDS011;22383;51.114;13.666;2022-11-04T10:40:41;5.65;;;1.85;;
36353;SDS011;22383;51.114;13.666;2022-11-04T10:43:15;1.50;;;1.40;;
36353;SDS011;22383;51.114;13.666;2022-11-04T10:48:30;1.27;;;1.10;;
36353;SDS011;22383;51.114;13.666;2022-11-04T10:51:05;2.15;;;1.17;;
36353;SDS011;22383;51.114;13.666;2022-11-04T10:53:33;1.00;;;0.95;;
36353;SDS011;22383;51.114;13.666;2022-11-04T10:58:34;0.40;;;0.40;;
36353;SDS011;22383;51.114;13.666;2022-11-04T11:03:49;1.05;;;0.52;;
36353;SDS011;22383;51.114;13.666;2022-11-04T11:06:24;1.20;;;1.13;;
36353;SDS011;22383;51.114;13.666;2022-11-04T11:11:46;1.02;;;1.02;;
36353;SDS011;22383;51.114;13.666;2022-11-04T11:16:54;2.53;;;0.70;;
36353;SDS011;22383;51.114;13.666;2022-11-04T11:19:47;1.00;;;0.90;;
36353;SDS011;22383;51.114;13.666;2022-11-04T11:22:29;0.80;;;0.65;;
36353;SDS011;22383;51.114;13.666;2022-11-04T11:27:40;4.15;;;1.95;;
36353;SDS011;22383;51.114;13.666;2022-11-04T11:30:21;5.93;;;0.50;;
36353;SDS011;22383;51.114;13.666;2022-11-04T11:32:56;0.50;;;0.50;;
36353;SDS011;22383;51.114;13.666;2022-11-04T11:35:28;0.52;;;0.52;;
36353;SDS011;22383;51.114;13.666;2022-11-04T11:37:59;3.05;;;1.13;;
36353;SDS011;22383;51.114;13.666;2022-11-04T11:40:31;0.55;;;0.50;;
36353;SDS011;22383;51.114;13.666;2022-11-04T11:43:24;2.13;;;0.90;;
36353;SDS011;22383;51.114;13.666;2022-11-04T11:45:56;1.02;;;0.77;;
36353;SDS011;22383;51.114;13.666;2022-11-04T11:48:27;0.90;;;0.90;;
36353;SDS011;22383;51.114;13.666;2022-11-04T11:50:57;0.60;;;0.60;;
36353;SDS011;22383;51.114;13.666;2022-11-04T11:53:27;0.28;;;0.28;;
36353;SDS011;22383;51.114;13.666;2022-11-04T11:58:45;2.50;;;1.65;;
36353;SDS011;22383;51.114;13.666;2022-11-04T12:01:48;0.40;;;0.38;;
36353;SDS011;22383;51.114;13.666;2022-11-04T12:04:23;1.08;;;1.00;;
36353;SDS011;22383;51.114;13.666;2022-11-04T12:07:33;1.02;;;0.90;;
36353;SDS011;22383;51.114;13.666;2022-11-04T12:10:44;1.67;;;1.27;;
36353;SDS011;22383;51.114;13.666;2022-11-04T12:16:51;1.48;;;1.00;;
36353;SDS011;22383;51.114;13.666;2022-11-04T12:19:33;1.20;;;1.13;;
36353;SDS011;22383;51.114;13.666;2022-11-04T12:22:57;1.10;;;1.05;;
36353;SDS011;22383;51.114;13.666;2022-11-04T12:25:50;0.73;;;0.73;;
36353;SDS011;22383;51.114;13.666;2022-11-04T12:29:25;1.13;;;1.10;;
36353;SDS011;22383;51.114;13.666;2022-11-04T12:37:13;1.10;;;1.08;;
36353;SDS011;22383;51.114;13.666;2022-11-04T12:40:15;4.07;;;0.43;;
36353;SDS011;22383;51.114;13.666;2022-11-04T12:42:53;1.67;;;1.55;;
36353;SDS011;22383;51.114;13.666;2022-11-04T12:46:25;12.07;;;1.55;;
36353;SDS011;22383;51.114;13.666;2022-11-04T12:57:50;1.20;;;1.20;;
36353;SDS011;22383;51.114;13.666;2022-11-04T13:00:38;0.50;;;0.50;;
36353;SDS011;22383;51.114;13.666;2022-11-04T13:03:12;1.00;;;1.00;;
36353;SDS011;22383;51.114;13.666;2022-11-04T13:05:51;2.90;;;1.15;;
36353;SDS011;22383;51.114;13.666;2022-11-04T13:08:30;3.30;;;1.27;;
36353;SDS011;22383;51.114;13.666;2022-11-04T13:13:55;1.13;;;1.08;;
36353;SDS011;22383;51.114;13.666;2022-11-04T13:16:29;0.50;;;0.50;;
36353;SDS011;22383;51.114;13.666;2022-11-04T13:19:00;1.08;;;0.82;;
36353;SDS011;22383;51.114;13.666;2022-11-04T13:21:30;0.57;;;0.57;;
36353;SDS011;22383;51.114;13.666;2022-11-04T13:24:04;2.42;;;1.90;;
36353;SDS011;22383;51.114;13.666;2022-11-04T13:26:41;0.70;;;0.70;;
36353;SDS011;22383;51.114;13.666;2022-11-04T13:31:44;2.00;;;1.13;;
36353;SDS011;22383;51.114;13.666;2022-11-04T13:37:16;6.40;;;1.75;;
36353;SDS011;22383;51.114;13.666;2022-11-04T13:45:53;0.70;;;0.70;;
36353;SDS011;22383;51.114;13.666;2022-11-04T13:48:26;3.30;;;2.00;;
36353;SDS011;22383;51.114;13.666;2022-11-04T13:51:08;1.15;;;1.13;;
36353;SDS011;22383;51.114;13.666;2022-11-04T13:56:48;1.05;;;0.93;;
36353;SDS011;22383;51.114;13.666;2022-11-04T14:02:37;2.35;;;0.98;;
36353;SDS011;22383;51.114;13.666;2022-11-04T14:08:07;0.38;;;0.38;;
36353;SDS011;22383;51.114;13.666;2022-11-04T14:16:02;0.75;;;0.75;;
36353;SDS011;22383;51.114;13.666;2022-11-04T14:18:44;0.57;;;0.50;;
36353;SDS011;22383;51.114;13.666;2022-11-04T14:21:17;1.13;;;0.98;;
36353;SDS011;22383;51.114;13.666;2022-11-04T14:23:48;3.72;;;1.30;;
36353;SDS011;22383;51.114;13.666;2022-11-04T14:26:17;1.05;;;1.02;;
36353;SDS011;22383;51.114;13.666;2022-11-04T14:29:00;0.98;;;0.80;;
36353;SDS011;22383;51.114;13.666;2022-11-04T14:31:34;3.97;;;1.55;;
36353;SDS011;22383;51.114;13.666;2022-11-04T14:34:02;5.68;;;0.93;;
36353;SDS011;22383;51.114;13.666;2022-11-04T14:36:38;0.40;;;0.40;;
36353;SDS011;22383;51.114;13.666;2022-11-04T14:44:13;0.85;;;0.85;;
36353;SDS011;22383;51.114;13.666;2022-11-04T14:46:55;2.10;;;1.17;;
36353;SDS011;22383;51.114;13.666;2022-11-04T14:49:39;1.67;;;1.30;;
36353;SDS011;22383;51.114;13.666;2022-11-04T14:55:13;2.85;;;1.48;;
36353;SDS011;22383;51.114;13.666;2022-11-04T14:57:43;4.18;;;1.90;;
36353;SDS011;22383;51.114;13.666;2022-11-04T15:02:59;0.30;;;0.30;;
36353;SDS011;22383;51.114;13.666;2022-11-04T15:06:09;1.50;;;0.80;;
36353;SDS011;22383;51.114;13.666;2022-11-04T15:11:12;1.55;;;1.15;;
36353;SDS011;22383;51.114;13.666;2022-11-04T15:16:25;1.23;;;1.08;;
36353;SDS011;22383;51.114;13.666;2022-11-04T15:18:57;1.00;;;0.90;;
36353;SDS011;22383;51.114;13.666;2022-11-04T15:21:25;1.27;;;0.77;;
36353;SDS011;22383;51.114;13.666;2022-11-04T15:23:53;1.67;;;1.02;;
36353;SDS011;22383;51.114;13.666;2022-11-04T15:28:57;10.52;;;2.38;;
36353;SDS011;22383;51.114;13.666;2022-11-04T15:31:28;3.92;;;2.10;;
36353;SDS011;22383;51.114;13.666;2022-11-04T15:33:59;1.02;;;0.80;;
36353;SDS011;22383;51.114;13.666;2022-11-04T15:36:36;0.75;;;0.75;;
36353;SDS011;22383;51.114;13.666;2022-11-04T15:39:06;1.13;;;1.03;;
36353;SDS011;22383;51.114;13.666;2022-11-04T15:41:39;1.40;;;1.30;;
36353;SDS011;22383;51.114;13.666;2022-11-04T15:44:28;2.00;;;1.55;;
36353;SDS011;22383;51.114;13.666;2022-11-04T15:47:00;2.67;;;1.27;;
36353;SDS011;22383;51.114;13.666;2022-11-04T15:49:46;1.60;;;1.50;;
36353;SDS011;22383;51.114;13.666;2022-11-04T15:52:18;2.28;;;1.38;;
36353;SDS011;22383;51.114;13.666;2022-11-04T15:54:54;1.35;;;1.05;;
36353;SDS011;22383;51.114;13.666;2022-11-04T15:57:27;2.22;;;2.05;;
36353;SDS011;22383;51.114;13.666;2022-11-04T16:00:06;2.33;;;1.42;;
36353;SDS011;22383;51.114;13.666;2022-11-04T16:02:45;1.08;;;1.05;;
36353;SDS011;22383;51.114;13.666;2022-11-04T16:05:25;1.48;;;1.38;;
36353;SDS011;22383;51.114;13.666;2022-11-04T16:07:53;3.43;;;2.27;;
36353;SDS011;22383;51.114;13.666;2022-11-04T16:10:27;2.10;;;1.83;;
36353;SDS011;22383;51.114;13.666;2022-11-04T16:13:02;1.30;;;1.20;;
36353;SDS011;22383;51.114;13.666;2022-11-04T16:15:52;0.73;;;0.73;;
36353;SDS011;22383;51.114;13.666;2022-11-04T16:21:27;1.45;;;1.35;;
36353;SDS011;22383;51.114;13.666;2022-11-04T16:24:03;2.85;;;1.25;;
36353;SDS011;22383;51.114;13.666;2022-11-04T16:26:42;2.65;;;2.45;;
36353;SDS011;22383;51.114;13.666;2022-11-04T16:29:49;1.17;;;1.08;;
36353;SDS011;22383;51.114;13.666;2022-11-04T16:33:05;3.03;;;2.15;;
36353;SDS011;22383;51.114;13.666;2022-11-04T16:37:41;1.65;;;1.55;;
36353;SDS011;22383;51.114;13.666;2022-11-04T16:40:08;1.10;;;1.10;;
36353;SDS011;22383;51.114;13.666;2022-11-04T16:42:36;4.82;;;1.15;;
36353;SDS011;22383;51.114;13.666;2022-11-04T16:45:03;1.25;;;1.00;;
36353;SDS011;22383;51.114;13.666;2022-11-04T16:47:33;1.65;;;1.55;;
36353;SDS011;22383;51.114;13.666;2022-11-04T16:50:08;4.93;;;2.47;;
36353;SDS011;22383;51.114;13.666;2022-11-04T16:52:42;2.47;;;0.75;;
36353;SDS011;22383;51.114;13.666;2022-11-04T16:55:11;2.83;;;1.88;;
36353;SDS011;22383;51.114;13.666;2022-11-04T16:57:40;2.35;;;1.95;;
36353;SDS011;22383;51.114;13.666;2022-11-04T17:02:44;1.33;;;1.23;;
36353;SDS011;22383;51.114;13.666;2022-11-04T17:05:12;2.53;;;1.67;;
36353;SDS011;22383;51.114;13.666;2022-11-04T17:07:39;1.52;;;1.30;;
36353;SDS011;22383;51.114;13.666;2022-11-04T17:10:22;0.85;;;0.85;;
36353;SDS011;22383;51.114;13.666;2022-11-04T17:12:52;0.98;;;0.98;;
36353;SDS011;22383;51.114;13.666;2022-11-04T17:17:48;0.80;;;0.80;;
36353;SDS011;22383;51.114;13.666;2022-11-04T17:20:16;1.13;;;1.02;;
36353;SDS011;22383;51.114;13.666;2022-11-04T17:22:45;2.17;;;1.38;;
36353;SDS011;22383;51.114;13.666;2022-11-04T17:25:18;1.92;;;1.42;;
36353;SDS011;22383;51.114;13.666;2022-11-04T17:27:48;5.05;;;1.85;;
36353;SDS011;22383;51.114;13.666;2022-11-04T17:30:16;2.95;;;2.75;;
36353;SDS011;22383;51.114;13.666;2022-11-04T17:32:45;9.10;;;2.95;;
36353;SDS011;22383;51.114;13.666;2022-11-04T17:35:14;2.28;;;1.90;;
36353;SDS011;22383;51.114;13.666;2022-11-04T17:37:43;1.52;;;1.27;;
36353;SDS011;22383;51.114;13.666;2022-11-04T17:40:14;1.52;;;1.30;;
36353;SDS011;22383;51.114;13.666;2022-11-04T17:42:43;0.80;;;0.80;;
36353;SDS011;22383;51.114;13.666;2022-11-04T17:45:38;1.33;;;1.23;;
36353;SDS011;22383;51.114;13.666;2022-11-04T17:48:09;4.28;;;1.42;;
36353;SDS011;22383;51.114;13.666;2022-11-04T17:50:37;2.05;;;1.83;;
36353;SDS011;22383;51.114;13.666;2022-11-04T17:53:07;9.38;;;1.95;;
36353;SDS011;22383;51.114;13.666;2022-11-04T17:55:36;1.33;;;1.27;;
36353;SDS011;22383;51.114;13.666;2022-11-04T17:58:06;1.30;;;1.20;;
36353;SDS011;22383;51.114;13.666;2022-11-04T18:00:33;2.22;;;1.50;;
36353;SDS011;22383;51.114;13.666;2022-11-04T18:03:03;2.35;;;2.15;;
36353;SDS011;22383;51.114;13.666;2022-11-04T18:05:33;1.23;;;0.93;;
36353;SDS011;22383;51.114;13.666;2022-11-04T18:08:00;2.35;;;1.67;;
36353;SDS011;22383;51.114;13.666;2022-11-04T18:10:28;0.82;;;0.82;;
36353;SDS011;22383;51.114;13.666;2022-11-04T18:13:12;2.92;;;2.33;;
36353;SDS011;22383;51.114;13.666;2022-11-04T18:15:40;7.28;;;1.85;;
36353;SDS011;22383;51.114;13.666;2022-11-04T18:18:08;3.70;;;1.85;;
36353;SDS011;22383;51.114;13.666;2022-11-04T18:20:35;1.55;;;1.45;;
36353;SDS011;22383;51.114;13.666;2022-11-04T18:23:03;1.70;;;1.38;;
36353;SDS011;22383;51.114;13.666;2022-11-04T18:25:31;2.25;;;1.63;;
36353;SDS011;22383;51.114;13.666;2022-11-04T18:27:58;3.30;;;2.78;;
36353;SDS011;22383;51.114;13.666;2022-11-04T18:30:26;2.05;;;0.65;;